createdAt,value
2022-08-26T00:00:51.475Z,100152.19
2022-08-26T00:01:51.391Z,100148.45
2022-08-26T00:02:51.378Z,100151.17
2022-08-26T00:03:51.535Z,100148.05
2022-08-26T00:04:52.094Z,100149.92
2022-08-26T00:05:51.509Z,100150.76
2022-08-26T00:06:51.638Z,100150.95
2022-08-26T00:07:51.684Z,100149.45
2022-08-26T00:08:51.563Z,100148.78
2022-08-26T00:09:54.341Z,100147.2
2022-08-26T00:10:52.571Z,100146.78
2022-08-26T00:11:52.828Z,100145.37
2022-08-26T00:12:52.425Z,100142.89
2022-08-26T00:13:52.305Z,100146.56
2022-08-26T00:14:52.303Z,100146.39
2022-08-26T00:15:52.299Z,100145.55
2022-08-26T00:16:52.695Z,100141.55
2022-08-26T00:17:52.875Z,100143.62
2022-08-26T00:18:52.526Z,100140.3
2022-08-26T00:19:52.291Z,100143.73
2022-08-26T00:20:52.408Z,100147.25
2022-08-26T00:21:52.396Z,100143.86
2022-08-26T00:22:52.274Z,100144.7
2022-08-26T00:23:52.405Z,100144.95
2022-08-26T00:24:52.435Z,100145.55
2022-08-26T00:25:52.632Z,100144.36
2022-08-26T00:26:52.579Z,100144.85
2022-08-26T00:27:52.910Z,100143.66
2022-08-26T00:28:52.542Z,100146.95
2022-08-26T00:29:52.548Z,100139.91
2022-08-26T00:30:52.668Z,100139.87
2022-08-26T00:31:52.681Z,100143.29
2022-08-26T00:32:53.084Z,100142.63
2022-08-26T00:33:52.510Z,100140.62
2022-08-26T00:34:52.594Z,100134.14
2022-08-26T00:35:52.561Z,100140.34
2022-08-26T00:36:52.587Z,100137.44
2022-08-26T00:37:53.081Z,100139.66
2022-08-26T00:38:52.698Z,100137.73
2022-08-26T00:39:52.597Z,100133.94
2022-08-26T00:40:54.320Z,100137.1
2022-08-26T00:41:52.698Z,100136.48
2022-08-26T00:42:52.705Z,100136.35
2022-08-26T00:43:53.284Z,100135.82
2022-08-26T00:44:52.696Z,100137.19
2022-08-26T00:46:56.717Z,100134.7
2022-08-26T00:48:00.628Z,100132.94
2022-08-26T00:49:02.909Z,100129.78
2022-08-26T00:50:01.810Z,100130.74
2022-08-26T00:51:09.857Z,100127.62
2022-08-26T00:52:03.621Z,100130.06
2022-08-26T00:53:04.976Z,100129.94
2022-08-26T00:54:10.843Z,100129.04
2022-08-26T00:55:09.357Z,100131.09
2022-08-26T00:56:08.136Z,100128.8
2022-08-26T00:57:16.235Z,100125.53
2022-08-26T00:58:08.662Z,100128.66
2022-08-26T00:59:10.990Z,100129.75
2022-08-26T01:00:11.373Z,100130.52
2022-08-26T01:01:10.036Z,100129.73
2022-08-26T01:02:08.526Z,100128.55
2022-08-26T01:03:12.775Z,100132.93
2022-08-26T01:04:13.811Z,100129.2
2022-08-26T01:05:12.640Z,100128.7
2022-08-26T01:06:13.679Z,100129.31
2022-08-26T01:07:12.544Z,100131
2022-08-26T01:08:12.505Z,100128.72
2022-08-26T01:09:12.995Z,100127.19
2022-08-26T01:10:14.907Z,100124.41
2022-08-26T01:11:12.828Z,100127.93
2022-08-26T01:12:13.608Z,100127.41
2022-08-26T01:13:13.014Z,100126.5
2022-08-26T01:14:13.479Z,100131.05
2022-08-26T01:16:15.713Z,100129.39
2022-08-26T01:17:14.724Z,100133.05
2022-08-26T01:18:14.881Z,100132.57
2022-08-26T01:19:23.743Z,100129.3
2022-08-26T01:22:21.743Z,100129.21
2022-08-26T01:23:18.515Z,100135.59
2022-08-26T01:24:18.585Z,100126.38
2022-08-26T01:25:19.294Z,100126.02
2022-08-26T01:27:21.811Z,100129.18
2022-08-26T01:28:25.376Z,100128.44
2022-08-26T01:29:22.250Z,100128.02
2022-08-26T01:30:21.985Z,100128.59
2022-08-26T01:31:24.110Z,100132.55
2022-08-26T01:32:23.406Z,100127.81
2022-08-26T01:33:28.871Z,100130.53
2022-08-26T01:34:32.975Z,100134.05
2022-08-26T01:35:29.506Z,100128.48
2022-08-26T01:36:30.662Z,100135.31
2022-08-26T01:37:33.225Z,100135.48
2022-08-26T01:38:31.543Z,100132.7
2022-08-26T01:39:31.241Z,100136.92
2022-08-26T01:40:31.358Z,100135.68
2022-08-26T01:41:30.515Z,100134.92
2022-08-26T01:42:30.037Z,100140.32
2022-08-26T01:43:31.496Z,100140.46
2022-08-26T01:44:32.538Z,100138.75
2022-08-26T01:45:32.598Z,100140.55
2022-08-26T01:46:30.280Z,100138.71
2022-08-26T01:47:31.592Z,100135.84
2022-08-26T01:48:31.357Z,100140.7
2022-08-26T01:49:29.954Z,100140.95
2022-08-26T01:50:32.602Z,100141.73
2022-08-26T01:51:30.622Z,100141.19
2022-08-26T01:52:31.478Z,100140.78
2022-08-26T01:53:30.329Z,100137.66
2022-08-26T01:54:30.048Z,100140.98
2022-08-26T01:55:33.121Z,100140.06
2022-08-26T01:56:33.299Z,100141.86
2022-08-26T01:57:34.286Z,100143.25
2022-08-26T01:58:36.718Z,100145.5
2022-08-26T01:59:33.662Z,100142.69
2022-08-26T02:00:34.356Z,100147.52
2022-08-26T02:01:33.749Z,100148.86
2022-08-26T02:02:33.256Z,100147.98
2022-08-26T02:03:33.867Z,100149.89
2022-08-26T02:04:38.490Z,100149.08
2022-08-26T02:05:35.316Z,100149.98
2022-08-26T02:06:36.578Z,100143.8
2022-08-26T02:07:35.391Z,100148.68
2022-08-26T02:08:38.569Z,100149.93
2022-08-26T02:09:41.373Z,100148.81
2022-08-26T02:10:38.169Z,100149.64
2022-08-26T02:11:38.225Z,100149.96
2022-08-26T02:12:39.298Z,100150.67
2022-08-26T02:14:44.025Z,100150.61
2022-08-26T02:15:42.867Z,100148.2
2022-08-26T02:16:43.033Z,100152.52
2022-08-26T02:17:43.349Z,100151.67
2022-08-26T02:18:41.819Z,100147.05
2022-08-26T02:19:42.322Z,100146.31
2022-08-26T02:20:41.205Z,100145.64
2022-08-26T02:21:41.384Z,100148.04
2022-08-26T02:22:41.747Z,100148.81
2022-08-26T02:23:41.864Z,100148.17
2022-08-26T02:24:50.929Z,100149.55
2022-08-26T02:26:44.758Z,100145.84
2022-08-26T02:27:43.902Z,100145.14
2022-08-26T02:29:49.063Z,100142.23
2022-08-26T02:30:47.308Z,100141.66
2022-08-26T02:31:46.884Z,100147.16
2022-08-26T02:32:46.909Z,100145.01
2022-08-26T02:33:47.252Z,100145.22
2022-08-26T02:34:47.292Z,100144.84
2022-08-26T02:35:46.898Z,100141.05
2022-08-26T02:36:46.968Z,100145.12
2022-08-26T02:37:46.943Z,100137.89
2022-08-26T02:38:47.089Z,100140.58
2022-08-26T02:39:47.039Z,100137.64
2022-08-26T02:40:46.926Z,100134.94
2022-08-26T02:41:46.889Z,100132.48
2022-08-26T02:42:47.005Z,100133.97
2022-08-26T02:43:46.937Z,100136.34
2022-08-26T02:44:46.956Z,100133.45
2022-08-26T02:45:47.280Z,100130.47
2022-08-26T02:46:47.455Z,100128.33
2022-08-26T02:47:48.299Z,100127.83
2022-08-26T02:48:46.983Z,100129.3
2022-08-26T02:49:47.247Z,100128.38
2022-08-26T02:50:47.755Z,100130.97
2022-08-26T02:51:47.362Z,100130.62
2022-08-26T02:52:47.050Z,100128.47
2022-08-26T02:53:47.101Z,100133.02
2022-08-26T02:54:47.171Z,100133.65
2022-08-26T02:55:47.102Z,100129.88
2022-08-26T02:56:47.284Z,100126.31
2022-08-26T02:57:47.366Z,100126.27
2022-08-26T02:58:47.226Z,100127.5
2022-08-26T02:59:47.118Z,100123.97
2022-08-26T03:00:53.438Z,100122.28
2022-08-26T03:01:50.796Z,100117.91
2022-08-26T03:02:50.788Z,100116.55
2022-08-26T03:03:51.082Z,100119.32
2022-08-26T03:04:57.975Z,100119.9
2022-08-26T03:05:54.160Z,100118.31
2022-08-26T03:06:55.401Z,100117.81
2022-08-26T03:07:54.026Z,100114.84
2022-08-26T03:08:53.988Z,100115.28
2022-08-26T03:09:53.922Z,100116.56
2022-08-26T03:10:53.908Z,100114.5
2022-08-26T03:11:53.974Z,100111.61
2022-08-26T03:12:53.981Z,100109.41
2022-08-26T03:13:53.965Z,100112.41
2022-08-26T03:14:53.808Z,100112.95
2022-08-26T03:15:54.018Z,100111.34
2022-08-26T03:16:54.524Z,100113.22
2022-08-26T03:17:55.007Z,100111.77
2022-08-26T03:18:54.015Z,100110.41
2022-08-26T03:19:57.190Z,100113.73
2022-08-26T03:20:54.019Z,100113.59
2022-08-26T03:21:57.909Z,100112.27
2022-08-26T03:22:56.119Z,100109.95
2022-08-26T03:23:54.722Z,100105.81
2022-08-26T03:24:55.266Z,100108.12
2022-08-26T03:25:55.177Z,100111.02
2022-08-26T03:26:55.309Z,100112.49
2022-08-26T03:27:55.305Z,100108.34
2022-08-26T03:28:55.803Z,100113.05
2022-08-26T03:29:55.352Z,100109.98
2022-08-26T03:30:55.765Z,100108.56
2022-08-26T03:31:55.421Z,100109.5
2022-08-26T03:32:55.368Z,100103.77
2022-08-26T03:33:59.115Z,100103.92
2022-08-26T03:34:56.488Z,100103.91
2022-08-26T03:35:56.746Z,100102.14
2022-08-26T03:36:56.496Z,100102.97
2022-08-26T03:37:56.570Z,100106.2
2022-08-26T03:38:56.820Z,100099.17
2022-08-26T03:39:56.418Z,100102.35
2022-08-26T03:40:56.486Z,100099.7
2022-08-26T03:41:56.527Z,100094.41
2022-08-26T03:42:56.937Z,100098.76
2022-08-26T03:44:01.428Z,100097.75
2022-08-26T03:44:58.268Z,100094.67
2022-08-26T03:45:58.256Z,100094.91
2022-08-26T03:46:58.455Z,100096.48
2022-08-26T03:47:58.613Z,100095.77
2022-08-26T03:48:58.607Z,100097.17
2022-08-26T03:49:58.355Z,100094.35
2022-08-26T03:50:58.302Z,100095.63
2022-08-26T03:51:58.452Z,100092.67
2022-08-26T03:52:58.424Z,100095.28
2022-08-26T03:53:58.715Z,100097.86
2022-08-26T03:54:58.462Z,100096.02
2022-08-26T03:55:58.393Z,100092.36
2022-08-26T03:56:58.499Z,100090.17
2022-08-26T03:57:58.804Z,100091.94
2022-08-26T03:58:58.616Z,100092.56
2022-08-26T03:59:58.625Z,100090.1
2022-08-26T04:00:58.635Z,100091.08
2022-08-26T04:01:58.545Z,100090.84
2022-08-26T04:02:58.728Z,100085.55
2022-08-26T04:04:00.200Z,100088.88
2022-08-26T04:04:58.546Z,100090.04
2022-08-26T04:05:58.828Z,100089.58
2022-08-26T04:06:59.402Z,100091.23
2022-08-26T04:07:58.593Z,100094.12
2022-08-26T04:09:00.376Z,100089.8
2022-08-26T04:09:58.871Z,100086.86
2022-08-26T04:10:58.708Z,100085.25
2022-08-26T04:11:58.671Z,100083.41
2022-08-26T04:12:59.455Z,100080.41
2022-08-26T04:14:04.041Z,100080.27
2022-08-26T04:15:00.453Z,100078.45
2022-08-26T04:16:00.859Z,100079.25
2022-08-26T04:17:00.441Z,100081.19
2022-08-26T04:18:00.538Z,100082.91
2022-08-26T04:19:00.985Z,100083.2
2022-08-26T04:20:00.680Z,100083.36
2022-08-26T04:21:00.625Z,100085.07
2022-08-26T04:22:00.715Z,100082.42
2022-08-26T04:23:00.773Z,100081.7
2022-08-26T04:24:03.582Z,100082.7
2022-08-26T04:25:00.758Z,100084.02
2022-08-26T04:26:01.244Z,100081.34
2022-08-26T04:27:00.758Z,100081.69
2022-08-26T04:28:00.745Z,100082.47
2022-08-26T04:29:01.105Z,100084.41
2022-08-26T04:30:00.948Z,100083.7
2022-08-26T04:31:00.953Z,100082.08
2022-08-26T04:32:00.868Z,100084.72
2022-08-26T04:33:00.827Z,100086.09
2022-08-26T04:34:00.997Z,100083.28
2022-08-26T04:35:01.029Z,100082.88
2022-08-26T04:36:04.068Z,100090.45
2022-08-26T04:37:01.264Z,100085.44
2022-08-26T04:38:01.102Z,100088.19
2022-08-26T04:39:01.903Z,100085.65
2022-08-26T04:40:01.051Z,100087.41
2022-08-26T04:41:01.119Z,100086.84
2022-08-26T04:42:01.672Z,100084.38
2022-08-26T04:43:00.992Z,100087.42
2022-08-26T04:44:02.333Z,100088.98
2022-08-26T04:45:01.117Z,100088.92
2022-08-26T04:46:02.911Z,100089.48
2022-08-26T04:47:00.898Z,100087.11
2022-08-26T04:48:01.071Z,100090.04
2022-08-26T04:49:01.070Z,100089.12
2022-08-26T04:50:01.923Z,100091.53
2022-08-26T04:51:01.284Z,100090.89
2022-08-26T04:52:01.083Z,100087.59
2022-08-26T04:53:01.853Z,100084.35
2022-08-26T04:54:01.343Z,100087.95
2022-08-26T04:55:01.180Z,100084.8
2022-08-26T04:56:01.261Z,100082.2
2022-08-26T04:57:01.189Z,100081.07
2022-08-26T04:58:01.388Z,100083.44
2022-08-26T04:59:02.006Z,100082.06
2022-08-26T05:00:01.256Z,100078.23
2022-08-26T05:01:01.615Z,100078.91
2022-08-26T05:02:01.439Z,100082.55
2022-08-26T05:03:01.337Z,100088.3
2022-08-26T05:04:01.707Z,100088.23
2022-08-26T05:05:01.774Z,100091.45
2022-08-26T05:06:04.150Z,100091.07
2022-08-26T05:07:02.316Z,100089.65
2022-08-26T05:08:01.595Z,100086.52
2022-08-26T05:09:01.678Z,100088.34
2022-08-26T05:10:02.100Z,100087.09
2022-08-26T05:11:04.041Z,100085.66
2022-08-26T05:12:02.515Z,100092.02
2022-08-26T05:13:02.379Z,100090.3
2022-08-26T05:14:02.586Z,100088.8
2022-08-26T05:15:02.363Z,100090.56
2022-08-26T05:16:03.990Z,100094.45
2022-08-26T05:17:02.426Z,100088.68
2022-08-26T05:18:06.601Z,100089.41
2022-08-26T05:19:03.881Z,100093.32
2022-08-26T05:20:04.246Z,100087.38
2022-08-26T05:21:04.535Z,100087.28
2022-08-26T05:22:03.857Z,100087.86
2022-08-26T05:23:03.897Z,100091.58
2022-08-26T05:24:04.149Z,100085.34
2022-08-26T05:25:04.152Z,100090.5
2022-08-26T05:26:07.452Z,100090.77
2022-08-26T05:27:04.643Z,100092.55
2022-08-26T05:28:08.598Z,100088.3
2022-08-26T05:29:08.130Z,100093.02
2022-08-26T05:30:08.833Z,100086.64
2022-08-26T05:31:15.513Z,100088.38
2022-08-26T05:32:09.309Z,100084.48
2022-08-26T05:33:09.596Z,100087.73
2022-08-26T05:34:09.395Z,100086.48
2022-08-26T05:35:09.410Z,100086.86
2022-08-26T05:36:10.537Z,100087.59
2022-08-26T05:37:09.386Z,100081.02
2022-08-26T05:38:14.141Z,100081.48
2022-08-26T05:39:10.894Z,100082.7
2022-08-26T05:40:11.094Z,100083.23
2022-08-26T05:41:14.896Z,100083.19
2022-08-26T05:42:13.197Z,100089.12
2022-08-26T05:43:13.946Z,100087.62
2022-08-26T05:44:14.356Z,100085.46
2022-08-26T05:45:13.266Z,100083.75
2022-08-26T05:46:14.142Z,100083.03
2022-08-26T05:47:13.260Z,100086.88
2022-08-26T05:48:14.168Z,100085.36
2022-08-26T05:49:14.180Z,100086.58
2022-08-26T05:50:13.325Z,100088.48
2022-08-26T05:51:13.644Z,100095.45
2022-08-26T05:52:13.373Z,100095.29
2022-08-26T05:53:15.145Z,100099.6
2022-08-26T05:54:14.477Z,100096.39
2022-08-26T05:55:18.274Z,100098.79
2022-08-26T05:56:18.302Z,100094.3
2022-08-26T05:57:18.554Z,100101.41
2022-08-26T05:58:18.812Z,100103.08
2022-08-26T05:59:24.147Z,100103.05
2022-08-26T06:00:21.433Z,100103.43
2022-08-26T06:01:23.657Z,100106.98
2022-08-26T06:02:21.542Z,100108.53
2022-08-26T06:03:21.456Z,100110.38
2022-08-26T06:04:21.871Z,100110.49
2022-08-26T06:05:21.407Z,100109.8
2022-08-26T06:06:28.542Z,100110.56
2022-08-26T06:07:26.244Z,100106.94
2022-08-26T06:08:26.181Z,100109.41
2022-08-26T06:09:26.230Z,100109.06
2022-08-26T06:10:33.326Z,100108.2
2022-08-26T06:11:30.957Z,100107.88
2022-08-26T06:12:30.027Z,100107.3
2022-08-26T06:13:31.882Z,100111.91
2022-08-26T06:14:30.009Z,100110.43
2022-08-26T06:15:30.126Z,100107.2
2022-08-26T06:16:30.336Z,100108.03
2022-08-26T06:17:31.161Z,100106.84
2022-08-26T06:18:31.865Z,100108.2
2022-08-26T06:19:32.645Z,100107.4
2022-08-26T06:20:31.327Z,100113.3
2022-08-26T06:21:31.544Z,100111.97
2022-08-26T06:22:30.145Z,100109.02
2022-08-26T06:23:30.258Z,100116.86
2022-08-26T06:24:30.294Z,100114.09
2022-08-26T06:25:30.256Z,100113.61
2022-08-26T06:26:30.635Z,100117.77
2022-08-26T06:27:32.634Z,100119.56
2022-08-26T06:28:30.279Z,100121.83
2022-08-26T06:29:34.973Z,100118.58
2022-08-26T06:30:33.552Z,100118.8
2022-08-26T06:31:33.569Z,100119.66
2022-08-26T06:32:32.786Z,100118.39
2022-08-26T06:33:33.210Z,100121.72
2022-08-26T06:34:32.817Z,100120.03
2022-08-26T06:35:36.810Z,100117.95
2022-08-26T06:36:33.665Z,100116.77
2022-08-26T06:37:33.278Z,100117.56
2022-08-26T06:38:33.557Z,100115.58
2022-08-26T06:39:33.597Z,100119.73
2022-08-26T06:40:33.660Z,100118.23
2022-08-26T06:41:34.319Z,100112.82
2022-08-26T06:42:33.388Z,100117.12
2022-08-26T06:43:33.430Z,100117
2022-08-26T06:44:33.433Z,100111.31
2022-08-26T06:45:33.439Z,100114.01
2022-08-26T06:46:33.735Z,100112.77
2022-08-26T06:47:33.553Z,100114.78
2022-08-26T06:48:33.604Z,100114.86
2022-08-26T06:49:33.567Z,100115.65
2022-08-26T06:50:34.460Z,100120.98
2022-08-26T06:51:35.313Z,100117.88
2022-08-26T06:52:33.577Z,100118.94
2022-08-26T06:53:33.578Z,100117.55
2022-08-26T06:54:33.511Z,100123
2022-08-26T06:55:34.002Z,100118.06
2022-08-26T06:56:41.217Z,100121.39
2022-08-26T06:57:37.807Z,100115.05
2022-08-26T06:58:38.900Z,100117.34
2022-08-26T06:59:37.752Z,100118.36
2022-08-26T07:00:38.123Z,100117.58
2022-08-26T07:01:38.666Z,100117.41
2022-08-26T07:02:39.748Z,100119.42
2022-08-26T07:03:39.964Z,100120.09
2022-08-26T07:04:39.688Z,100119.59
2022-08-26T07:05:39.812Z,100123.77
2022-08-26T07:06:40.658Z,100125.42
2022-08-26T07:07:39.956Z,100121.05
2022-08-26T07:08:39.813Z,100122.5
2022-08-26T07:09:39.891Z,100124.09
2022-08-26T07:10:39.847Z,100122.81
2022-08-26T07:11:39.890Z,100123.84
2022-08-26T07:12:39.870Z,100123.43
2022-08-26T07:13:39.934Z,100119.22
2022-08-26T07:14:40.028Z,100121.39
2022-08-26T07:15:41.694Z,100120.64
2022-08-26T07:16:40.889Z,100124.44
2022-08-26T07:17:40.530Z,100117.94
2022-08-26T07:18:41.107Z,100118.8
2022-08-26T07:19:40.526Z,100119
2022-08-26T07:20:40.432Z,100122.3
2022-08-26T07:21:40.536Z,100118.59
2022-08-26T07:22:40.695Z,100121.67
2022-08-26T07:23:40.770Z,100119.42
2022-08-26T07:24:40.616Z,100121.96
2022-08-26T07:25:41.558Z,100122.91
2022-08-26T07:26:43.006Z,100123.78
2022-08-26T07:27:40.498Z,100129.05
2022-08-26T07:28:40.635Z,100126.98
2022-08-26T07:29:40.946Z,100123.91
2022-08-26T07:30:41.211Z,100129.63
2022-08-26T07:31:42.404Z,100128.82
2022-08-26T07:32:40.662Z,100125
2022-08-26T07:33:41.330Z,100130.14
2022-08-26T07:34:41.906Z,100130.02
2022-08-26T07:35:40.643Z,100131.48
2022-08-26T07:36:40.701Z,100129.38
2022-08-26T07:37:40.819Z,100135.23
2022-08-26T07:38:41.679Z,100130.98
2022-08-26T07:39:41.563Z,100122.98
2022-08-26T07:40:41.029Z,100126.97
2022-08-26T07:41:40.839Z,100129.39
2022-08-26T07:42:40.866Z,100124.2
2022-08-26T07:43:40.966Z,100121.31
2022-08-26T07:44:41.933Z,100123.02
2022-08-26T07:45:40.891Z,100124.01
2022-08-26T07:46:41.303Z,100119.62
2022-08-26T07:47:41.206Z,100119.75
2022-08-26T07:48:40.952Z,100125.8
2022-08-26T07:49:42.822Z,100119.66
2022-08-26T07:50:49.572Z,100121.62
2022-08-26T07:51:47.237Z,100121.77
2022-08-26T07:52:48.013Z,100119.27
2022-08-26T07:53:47.920Z,100116.23
2022-08-26T07:54:48.823Z,100116.19
2022-08-26T07:55:49.457Z,100116.81
2022-08-26T07:56:49.019Z,100117.73
2022-08-26T07:57:49.012Z,100120.2
2022-08-26T07:58:51.831Z,100119.64
2022-08-26T07:59:48.884Z,100120.22
2022-08-26T08:00:48.878Z,100114.84
2022-08-26T08:01:49.138Z,100114.64
2022-08-26T08:02:49.037Z,100112.75
2022-08-26T08:03:50.526Z,100114.47
2022-08-26T08:04:49.019Z,100113.19
2022-08-26T08:05:48.966Z,100114.72
2022-08-26T08:06:49.066Z,100117.27
2022-08-26T08:07:49.248Z,100117.2
2022-08-26T08:08:50.867Z,100115.39
2022-08-26T08:09:50.149Z,100115.91
2022-08-26T08:10:50.123Z,100118.11
2022-08-26T08:11:50.062Z,100117.3
2022-08-26T08:12:50.761Z,100111.62
2022-08-26T08:13:56.013Z,100112.78
2022-08-26T08:14:53.207Z,100112.5
2022-08-26T08:15:53.110Z,100110.5
2022-08-26T08:16:54.631Z,100110.58
2022-08-26T08:17:54.761Z,100111.23
2022-08-26T08:18:55.303Z,100110.56
2022-08-26T08:19:54.288Z,100107.56
2022-08-26T08:21:04.864Z,100107.56
2022-08-26T08:21:58.108Z,100108.89
2022-08-26T08:22:58.174Z,100104.13
2022-08-26T08:23:58.370Z,100104.27
2022-08-26T08:24:58.154Z,100108.12
2022-08-26T08:26:01.703Z,100105.77
2022-08-26T08:26:59.176Z,100103.98
2022-08-26T08:27:58.711Z,100105.34
2022-08-26T08:28:58.676Z,100106.96
2022-08-26T08:29:58.852Z,100108.16
2022-08-26T08:30:59.255Z,100108.42
2022-08-26T08:31:59.266Z,100108.86
2022-08-26T08:32:58.770Z,100111.95
2022-08-26T08:33:58.809Z,100109.38
2022-08-26T08:34:58.829Z,100106.33
2022-08-26T08:35:59.173Z,100104.47
2022-08-26T08:36:58.820Z,100103.67
2022-08-26T08:37:58.819Z,100100.08
2022-08-26T08:38:58.875Z,100103.83
2022-08-26T08:39:59.181Z,100103.43
2022-08-26T08:40:58.876Z,100099.66
2022-08-26T08:43:04.213Z,100102.88
2022-08-26T08:44:01.737Z,100098.85
2022-08-26T08:45:03.211Z,100103.05
2022-08-26T08:46:04.925Z,100103.55
2022-08-26T08:47:04.771Z,100101.14
2022-08-26T08:48:10.210Z,100101.59
2022-08-26T08:49:03.048Z,100097.14
2022-08-26T08:52:17.304Z,100102.12
2022-08-26T08:54:14.170Z,100093.8
2022-08-26T08:55:18.059Z,100094.03
2022-08-26T08:57:31.654Z,100090.51
2022-08-26T08:58:27.339Z,100090
2022-08-26T08:59:31.417Z,100090.06
2022-08-26T09:00:30.430Z,100091.22
2022-08-26T09:01:37.220Z,100092.55
2022-08-26T09:02:33.853Z,100093.88
2022-08-26T09:03:38.270Z,100091.15
2022-08-26T09:05:39.009Z,100085.05
2022-08-26T09:06:37.819Z,100081.69
2022-08-26T09:08:39.980Z,100086.56
2022-08-26T09:09:41.723Z,100083.86
2022-08-26T09:11:44.368Z,100087.9
2022-08-26T09:12:45.838Z,100087.34
2022-08-26T09:13:47.502Z,100087.75
2022-08-26T09:14:46.496Z,100084.06
2022-08-26T09:21:02.095Z,100084.98
2022-08-26T09:21:59.690Z,100085.59
2022-08-26T09:22:58.617Z,100080.36
2022-08-26T09:23:58.841Z,100084.42
2022-08-26T09:24:58.889Z,100077.36
2022-08-26T09:26:03.292Z,100080.04
2022-08-26T09:27:01.049Z,100075.39
2022-08-26T09:28:01.156Z,100077.45
2022-08-26T09:29:02.533Z,100074.99
2022-08-26T09:30:01.326Z,100078.37
2022-08-26T09:33:10.833Z,100077.75
2022-08-26T09:36:20.283Z,100082.3
2022-08-26T09:38:23.372Z,100082.89
2022-08-26T09:39:29.105Z,100079.95
2022-08-26T09:40:30.424Z,100079.56
2022-08-26T09:41:31.753Z,100079.59
2022-08-26T09:42:28.756Z,100078.82
2022-08-26T09:43:29.300Z,100081.04
2022-08-26T09:44:28.805Z,100076.49
2022-08-26T09:45:28.820Z,100073.34
2022-08-26T09:46:29.198Z,100074.25
2022-08-26T09:48:36.081Z,100066.06
2022-08-26T09:49:36.315Z,100068.63
2022-08-26T09:51:36.493Z,100069.7
2022-08-26T09:52:36.663Z,100072.86
2022-08-26T09:54:38.080Z,100069.92
2022-08-26T09:55:38.271Z,100063.91
2022-08-26T09:56:39.216Z,100064.73
2022-08-26T09:57:48.129Z,100067.02
2022-08-26T09:58:41.850Z,100063.44
2022-08-26T09:59:40.092Z,100061.83
2022-08-26T10:00:42.444Z,100061.88
2022-08-26T10:01:42.428Z,100063.59
2022-08-26T10:02:41.289Z,100065.91
2022-08-26T10:03:45.308Z,100067.5
2022-08-26T10:04:55.338Z,100069.36
2022-08-26T10:06:59.698Z,100063.55
2022-08-26T10:07:57.480Z,100063.86
2022-08-26T10:09:00.087Z,100069.05
2022-08-26T10:09:57.263Z,100069.2
2022-08-26T10:10:59.286Z,100069
2022-08-26T10:11:59.006Z,100066.25
2022-08-26T10:13:09.676Z,100065.28
2022-08-26T10:14:04.568Z,100068.88
2022-08-26T10:15:04.299Z,100068.59
2022-08-26T10:16:14.846Z,100066.44
2022-08-26T10:19:12.084Z,100064.76
2022-08-26T10:20:22.685Z,100059.7
2022-08-26T10:21:14.134Z,100060.2
2022-08-26T10:22:20.727Z,100064.2
2022-08-26T10:23:18.700Z,100061.62
2022-08-26T10:24:22.101Z,100058.06
2022-08-26T10:25:21.912Z,100057.06
2022-08-26T10:29:27.598Z,100058.79
2022-08-26T10:31:28.374Z,100059.19
2022-08-26T10:33:30.987Z,100057.31
2022-08-26T10:34:32.123Z,100056.66
2022-08-26T10:35:31.261Z,100058.66
2022-08-26T10:36:42.945Z,100058.89
2022-08-26T10:37:36.579Z,100058.14
2022-08-26T10:38:35.465Z,100055.09
2022-08-26T10:41:42.861Z,100051.22
2022-08-26T10:42:43.420Z,100058.74
2022-08-26T10:43:45.937Z,100058.75
2022-08-26T10:44:45.980Z,100054.66
2022-08-26T10:45:51.801Z,100051.37
2022-08-26T10:46:51.443Z,100060.7
2022-08-26T10:47:56.085Z,100058.17
2022-08-26T10:49:00.026Z,100063.23
2022-08-26T10:50:03.231Z,100056.46
2022-08-26T10:51:01.089Z,100056.87
2022-08-26T10:52:15.202Z,100056.2
2022-08-26T10:57:23.949Z,100061.52
2022-08-26T11:00:21.909Z,100052.82
2022-08-26T11:05:32.879Z,100044.56
2022-08-26T11:06:33.002Z,100044.52
2022-08-26T11:08:45.372Z,100043.27
2022-08-26T11:09:43.144Z,100042.09
2022-08-26T11:11:44.200Z,100042.33
2022-08-26T11:14:58.822Z,100045.56
2022-08-26T11:15:58.036Z,100044.33
2022-08-26T11:16:54.479Z,100044.89
2022-08-26T11:18:54.250Z,100042.25
2022-08-26T11:20:01.587Z,100034.95
2022-08-26T11:20:54.221Z,100034.42
2022-08-26T11:24:00.847Z,100036.75
2022-08-26T11:25:02.153Z,100034.72
2022-08-26T11:27:02.076Z,100039.49
2022-08-26T11:28:02.257Z,100035.38
2022-08-26T11:29:03.161Z,100034.51
2022-08-26T11:30:04.533Z,100030.42
2022-08-26T11:31:02.466Z,100034.72
2022-08-26T11:32:02.630Z,100033.2
2022-08-26T11:33:02.314Z,100034.55
2022-08-26T11:34:03.189Z,100029.88
2022-08-26T11:35:04.191Z,100028.45
2022-08-26T11:36:12.071Z,100027.08
2022-08-26T11:37:12.150Z,100025.84
2022-08-26T11:38:21.689Z,100025.05
2022-08-26T11:40:14.950Z,100026.15
2022-08-26T11:41:20.927Z,100025.46
2022-08-26T11:42:27.622Z,100015.89
2022-08-26T11:43:21.707Z,100026.62
2022-08-26T11:44:21.872Z,100023.85
2022-08-26T11:45:28.379Z,100027.19
2022-08-26T11:48:30.918Z,100020.42
2022-08-26T11:49:28.889Z,100021.69
2022-08-26T11:50:28.730Z,100022.89
2022-08-26T11:51:27.677Z,100016.88
2022-08-26T11:52:27.421Z,100017.09
2022-08-26T11:53:28.681Z,100018.16
2022-08-26T11:54:35.700Z,100016.75
2022-08-26T11:55:33.933Z,100013.68
2022-08-26T11:56:34.043Z,100018.57
2022-08-26T11:57:40.517Z,100017.06
2022-08-26T11:58:41.837Z,100018.22
2022-08-26T11:59:39.356Z,100019.56
2022-08-26T12:01:43.535Z,100014.97
2022-08-26T12:02:40.803Z,100017.12
2022-08-26T12:04:45.732Z,100018.17
2022-08-26T12:05:43.940Z,100015.41
2022-08-26T12:07:48.865Z,100013.15
2022-08-26T12:08:46.936Z,100012.45
2022-08-26T12:10:46.055Z,100009.98
2022-08-26T12:11:46.265Z,100009.09
2022-08-26T12:12:54.186Z,100007.75
2022-08-26T12:13:54.175Z,100009.47
2022-08-26T12:15:04.988Z,100009.12
2022-08-26T12:15:56.273Z,100003.27
2022-08-26T12:16:53.380Z,100003.77
2022-08-26T12:17:54.340Z,100004.36
2022-08-26T12:18:53.209Z,100002.95
2022-08-26T12:19:53.469Z,99999.11
2022-08-26T12:20:53.566Z,100001.67
2022-08-26T12:22:01.085Z,99997.11
2022-08-26T12:22:53.285Z,99999.59
2022-08-26T12:23:54.855Z,100001.08
2022-08-26T12:24:55.524Z,99997.16
2022-08-26T12:26:02.225Z,99994.34
2022-08-26T12:28:02.710Z,99994.3
2022-08-26T12:29:12.864Z,99992.17
2022-08-26T12:30:04.912Z,99995.18
2022-08-26T12:31:10.218Z,99995.25
2022-08-26T12:32:12.921Z,99994.21
2022-08-26T12:33:22.396Z,99990.75
2022-08-26T12:34:06.295Z,99992.28
2022-08-26T12:35:09.869Z,99986.75
2022-08-26T12:36:09.472Z,99985.41
2022-08-26T12:37:10.907Z,99989.39
2022-08-26T12:38:10.402Z,99990.5
2022-08-26T12:39:13.827Z,99981.44
2022-08-26T12:41:10.438Z,99984.23